sensor_id;sensor_type;location;lat;lon;timestamp;P1;durP1;ratioP1;P2;durP2;ratioP2
4409;SDS011;2218;51.408;7.208;2022-11-20T00:00:17;1.40;;;1.30;;
4409;SDS011;2218;51.408;7.208;2022-11-20T00:02:44;1.50;;;1.40;;
4409;SDS011;2218;51.408;7.208;2022-11-20T00:05:11;1.50;;;1.30;;
4409;SDS011;2218;51.408;7.208;2022-11-20T00:07:39;1.47;;;1.37;;
4409;SDS011;2218;51.408;7.208;2022-11-20T00:10:06;1.63;;;1.53;;
4409;SDS011;2218;51.408;7.208;2022-11-20T00:12:34;1.70;;;1.60;;
4409;SDS011;2218;51.408;7.208;2022-11-20T00:15:01;1.60;;;1.50;;
4409;SDS011;2218;51.408;7.208;2022-11-20T00:17:28;1.47;;;1.37;;
4409;SDS011;2218;51.408;7.208;2022-11-20T00:19:55;1.40;;;1.30;;
4409;SDS011;2218;51.408;7.208;2022-11-20T00:22:22;1.40;;;1.30;;
4409;SDS011;2218;51.408;7.208;2022-11-20T00:24:50;1.77;;;1.67;;
4409;SDS011;2218;51.408;7.208;2022-11-20T00:27:17;1.53;;;1.43;;
4409;SDS011;2218;51.408;7.208;2022-11-20T00:29:44;1.40;;;1.30;;
4409;SDS011;2218;51.408;7.208;2022-11-20T00:32:11;1.47;;;1.37;;
4409;SDS011;2218;51.408;7.208;2022-11-20T00:34:38;1.90;;;1.80;;
4409;SDS011;2218;51.408;7.208;2022-11-20T00:37:05;1.83;;;1.73;;
4409;SDS011;2218;51.408;7.208;2022-11-20T00:39:32;1.87;;;1.77;;
4409;SDS011;2218;51.408;7.208;2022-11-20T00:42:00;1.67;;;1.57;;
4409;SDS011;2218;51.408;7.208;2022-11-20T00:44:27;1.63;;;1.53;;
4409;SDS011;2218;51.408;7.208;2022-11-20T00:46:54;1.90;;;1.80;;
4409;SDS011;2218;51.408;7.208;2022-11-20T00:49:21;1.77;;;1.67;;
4409;SDS011;2218;51.408;7.208;2022-11-20T00:51:47;1.67;;;1.57;;
4409;SDS011;2218;51.408;7.208;2022-11-20T00:54:14;1.90;;;1.80;;
4409;SDS011;2218;51.408;7.208;2022-11-20T00:56:41;1.90;;;1.80;;
4409;SDS011;2218;51.408;7.208;2022-11-20T00:59:09;1.70;;;1.60;;
4409;SDS011;2218;51.408;7.208;2022-11-20T01:01:37;1.40;;;1.30;;
4409;SDS011;2218;51.408;7.208;2022-11-20T01:04:04;1.60;;;1.50;;
4409;SDS011;2218;51.408;7.208;2022-11-20T01:06:32;1.90;;;1.80;;
4409;SDS011;2218;51.408;7.208;2022-11-20T01:09:03;1.70;;;1.60;;
4409;SDS011;2218;51.408;7.208;2022-11-20T01:11:33;1.60;;;1.50;;
4409;SDS011;2218;51.408;7.208;2022-11-20T01:14:04;1.50;;;1.40;;
4409;SDS011;2218;51.408;7.208;2022-11-20T01:16:37;1.90;;;1.80;;
4409;SDS011;2218;51.408;7.208;2022-11-20T01:19:07;1.70;;;1.60;;
4409;SDS011;2218;51.408;7.208;2022-11-20T01:21:39;1.60;;;1.50;;
4409;SDS011;2218;51.408;7.208;2022-11-20T01:24:10;1.50;;;1.40;;
4409;SDS011;2218;51.408;7.208;2022-11-20T01:26:41;1.27;;;1.17;;
4409;SDS011;2218;51.408;7.208;2022-11-20T01:29:10;1.53;;;1.43;;
4409;SDS011;2218;51.408;7.208;2022-11-20T01:31:42;1.80;;;1.70;;
4409;SDS011;2218;51.408;7.208;2022-11-20T01:34:10;1.73;;;1.63;;
4409;SDS011;2218;51.408;7.208;2022-11-20T01:36:40;1.67;;;1.57;;
4409;SDS011;2218;51.408;7.208;2022-11-20T01:39:10;1.57;;;1.47;;
4409;SDS011;2218;51.408;7.208;2022-11-20T01:41:40;1.90;;;1.80;;
4409;SDS011;2218;51.408;7.208;2022-11-20T01:47:20;1.60;;;1.50;;
4409;SDS011;2218;51.408;7.208;2022-11-20T01:49:56;1.80;;;1.70;;
4409;SDS011;2218;51.408;7.208;2022-11-20T01:52:30;1.53;;;1.40;;
4409;SDS011;2218;51.408;7.208;2022-11-20T01:55:05;1.80;;;1.70;;
4409;SDS011;2218;51.408;7.208;2022-11-20T01:57:35;1.73;;;1.63;;
4409;SDS011;2218;51.408;7.208;2022-11-20T02:00:07;1.77;;;1.67;;
4409;SDS011;2218;51.408;7.208;2022-11-20T02:02:42;1.70;;;1.60;;
4409;SDS011;2218;51.408;7.208;2022-11-20T02:05:18;1.93;;;1.83;;
4409;SDS011;2218;51.408;7.208;2022-11-20T02:07:50;1.60;;;1.50;;
4409;SDS011;2218;51.408;7.208;2022-11-20T02:10:20;1.80;;;1.70;;
4409;SDS011;2218;51.408;7.208;2022-11-20T02:12:47;1.40;;;1.30;;
4409;SDS011;2218;51.408;7.208;2022-11-20T02:15:32;1.80;;;1.70;;
4409;SDS011;2218;51.408;7.208;2022-11-20T02:18:01;2.00;;;1.90;;
4409;SDS011;2218;51.408;7.208;2022-11-20T02:20:28;1.60;;;1.50;;
4409;SDS011;2218;51.408;7.208;2022-11-20T02:22:56;1.30;;;1.20;;
4409;SDS011;2218;51.408;7.208;2022-11-20T02:25:31;1.60;;;1.50;;
4409;SDS011;2218;51.408;7.208;2022-11-20T02:28:02;1.60;;;1.50;;
4409;SDS011;2218;51.408;7.208;2022-11-20T02:30:31;1.80;;;1.70;;
4409;SDS011;2218;51.408;7.208;2022-11-20T02:32:58;1.60;;;1.50;;
4409;SDS011;2218;51.408;7.208;2022-11-20T02:35:44;1.50;;;1.40;;
4409;SDS011;2218;51.408;7.208;2022-11-20T02:38:12;1.77;;;1.67;;
4409;SDS011;2218;51.408;7.208;2022-11-20T02:40:41;1.70;;;1.60;;
4409;SDS011;2218;51.408;7.208;2022-11-20T02:43:09;1.77;;;1.67;;
4409;SDS011;2218;51.408;7.208;2022-11-20T02:45:36;1.53;;;1.43;;
4409;SDS011;2218;51.408;7.208;2022-11-20T02:48:05;1.73;;;1.63;;
4409;SDS011;2218;51.408;7.208;2022-11-20T02:50:33;1.90;;;1.80;;
4409;SDS011;2218;51.408;7.208;2022-11-20T02:53:03;1.83;;;1.73;;
4409;SDS011;2218;51.408;7.208;2022-11-20T02:55:30;1.80;;;1.70;;
4409;SDS011;2218;51.408;7.208;2022-11-20T02:57:58;1.37;;;1.27;;
4409;SDS011;2218;51.408;7.208;2022-11-20T03:00:25;1.57;;;1.47;;
4409;SDS011;2218;51.408;7.208;2022-11-20T03:02:52;1.60;;;1.50;;
4409;SDS011;2218;51.408;7.208;2022-11-20T03:05:18;1.57;;;1.47;;
4409;SDS011;2218;51.408;7.208;2022-11-20T03:07:46;1.73;;;1.63;;
4409;SDS011;2218;51.408;7.208;2022-11-20T03:10:12;1.50;;;1.40;;
4409;SDS011;2218;51.408;7.208;2022-11-20T03:12:40;1.70;;;1.60;;
4409;SDS011;2218;51.408;7.208;2022-11-20T03:15:08;1.77;;;1.67;;
4409;SDS011;2218;51.408;7.208;2022-11-20T03:17:36;1.70;;;1.60;;
4409;SDS011;2218;51.408;7.208;2022-11-20T03:20:03;1.70;;;1.60;;
4409;SDS011;2218;51.408;7.208;2022-11-20T03:22:32;1.37;;;1.27;;
4409;SDS011;2218;51.408;7.208;2022-11-20T03:24:58;1.60;;;1.50;;
4409;SDS011;2218;51.408;7.208;2022-11-20T03:27:25;1.60;;;1.50;;
4409;SDS011;2218;51.408;7.208;2022-11-20T03:29:52;1.60;;;1.50;;
4409;SDS011;2218;51.408;7.208;2022-11-20T03:32:20;1.60;;;1.50;;
4409;SDS011;2218;51.408;7.208;2022-11-20T03:34:47;1.90;;;1.80;;
4409;SDS011;2218;51.408;7.208;2022-11-20T03:37:14;1.63;;;1.53;;
4409;SDS011;2218;51.408;7.208;2022-11-20T03:39:41;2.10;;;1.93;;
4409;SDS011;2218;51.408;7.208;2022-11-20T03:42:08;2.13;;;2.03;;
4409;SDS011;2218;51.408;7.208;2022-11-20T03:44:55;1.53;;;1.43;;
4409;SDS011;2218;51.408;7.208;2022-11-20T03:47:24;1.77;;;1.67;;
4409;SDS011;2218;51.408;7.208;2022-11-20T03:49:50;1.67;;;1.57;;
4409;SDS011;2218;51.408;7.208;2022-11-20T03:52:17;1.70;;;1.60;;
4409;SDS011;2218;51.408;7.208;2022-11-20T03:54:44;1.80;;;1.70;;
4409;SDS011;2218;51.408;7.208;2022-11-20T03:57:11;1.47;;;1.37;;
4409;SDS011;2218;51.408;7.208;2022-11-20T03:59:38;1.53;;;1.43;;
4409;SDS011;2218;51.408;7.208;2022-11-20T04:02:05;1.60;;;1.50;;
4409;SDS011;2218;51.408;7.208;2022-11-20T04:04:33;1.63;;;1.53;;
4409;SDS011;2218;51.408;7.208;2022-11-20T04:07:00;1.37;;;1.27;;
4409;SDS011;2218;51.408;7.208;2022-11-20T04:09:27;1.40;;;1.30;;
4409;SDS011;2218;51.408;7.208;2022-11-20T04:11:53;1.60;;;1.50;;
4409;SDS011;2218;51.408;7.208;2022-11-20T04:14:20;1.50;;;1.40;;
4409;SDS011;2218;51.408;7.208;2022-11-20T04:16:47;1.67;;;1.57;;
4409;SDS011;2218;51.408;7.208;2022-11-20T04:19:15;1.63;;;1.53;;
4409;SDS011;2218;51.408;7.208;2022-11-20T04:21:44;1.43;;;1.33;;
4409;SDS011;2218;51.408;7.208;2022-11-20T04:24:11;1.50;;;1.40;;
4409;SDS011;2218;51.408;7.208;2022-11-20T04:26:38;1.47;;;1.37;;
4409;SDS011;2218;51.408;7.208;2022-11-20T04:29:06;1.50;;;1.40;;
4409;SDS011;2218;51.408;7.208;2022-11-20T04:31:37;1.30;;;1.20;;
4409;SDS011;2218;51.408;7.208;2022-11-20T04:34:05;1.47;;;1.37;;
4409;SDS011;2218;51.408;7.208;2022-11-20T04:36:33;1.67;;;1.37;;
4409;SDS011;2218;51.408;7.208;2022-11-20T04:39:03;1.50;;;1.40;;
4409;SDS011;2218;51.408;7.208;2022-11-20T04:41:32;1.70;;;1.60;;
4409;SDS011;2218;51.408;7.208;2022-11-20T04:44:02;2.03;;;1.70;;
4409;SDS011;2218;51.408;7.208;2022-11-20T04:46:32;1.60;;;1.50;;
4409;SDS011;2218;51.408;7.208;2022-11-20T04:49:02;1.70;;;1.60;;
4409;SDS011;2218;51.408;7.208;2022-11-20T04:51:30;1.40;;;1.30;;
4409;SDS011;2218;51.408;7.208;2022-11-20T04:53:57;1.43;;;1.33;;
4409;SDS011;2218;51.408;7.208;2022-11-20T04:56:26;1.50;;;1.40;;
4409;SDS011;2218;51.408;7.208;2022-11-20T04:58:53;1.57;;;1.47;;
4409;SDS011;2218;51.408;7.208;2022-11-20T05:01:20;1.57;;;1.47;;
4409;SDS011;2218;51.408;7.208;2022-11-20T05:03:49;1.50;;;1.40;;
4409;SDS011;2218;51.408;7.208;2022-11-20T05:06:17;1.50;;;1.33;;
4409;SDS011;2218;51.408;7.208;2022-11-20T05:08:47;1.43;;;1.33;;
4409;SDS011;2218;51.408;7.208;2022-11-20T05:11:14;1.50;;;1.40;;
4409;SDS011;2218;51.408;7.208;2022-11-20T05:13:45;1.20;;;1.10;;
4409;SDS011;2218;51.408;7.208;2022-11-20T05:16:13;1.53;;;1.43;;
4409;SDS011;2218;51.408;7.208;2022-11-20T05:18:42;1.60;;;1.50;;
4409;SDS011;2218;51.408;7.208;2022-11-20T05:21:10;1.37;;;1.27;;
4409;SDS011;2218;51.408;7.208;2022-11-20T05:23:38;1.50;;;1.40;;
4409;SDS011;2218;51.408;7.208;2022-11-20T05:26:08;1.30;;;1.20;;
4409;SDS011;2218;51.408;7.208;2022-11-20T05:28:39;1.60;;;1.50;;
4409;SDS011;2218;51.408;7.208;2022-11-20T05:31:08;1.40;;;1.30;;
4409;SDS011;2218;51.408;7.208;2022-11-20T05:33:38;1.20;;;1.10;;
4409;SDS011;2218;51.408;7.208;2022-11-20T05:36:07;1.30;;;1.20;;
4409;SDS011;2218;51.408;7.208;2022-11-20T05:38:35;1.30;;;1.20;;
4409;SDS011;2218;51.408;7.208;2022-11-20T05:41:05;1.30;;;1.20;;
4409;SDS011;2218;51.408;7.208;2022-11-20T05:43:33;1.57;;;1.47;;
4409;SDS011;2218;51.408;7.208;2022-11-20T05:46:01;1.00;;;0.93;;
4409;SDS011;2218;51.408;7.208;2022-11-20T05:48:30;1.57;;;1.47;;
4409;SDS011;2218;51.408;7.208;2022-11-20T05:50:59;1.40;;;1.30;;
4409;SDS011;2218;51.408;7.208;2022-11-20T05:53:27;1.30;;;1.20;;
4409;SDS011;2218;51.408;7.208;2022-11-20T05:55:58;1.20;;;1.10;;
4409;SDS011;2218;51.408;7.208;2022-11-20T05:58:26;1.20;;;1.10;;
4409;SDS011;2218;51.408;7.208;2022-11-20T06:00:54;1.30;;;1.20;;
4409;SDS011;2218;51.408;7.208;2022-11-20T06:03:28;1.23;;;1.13;;
4409;SDS011;2218;51.408;7.208;2022-11-20T06:05:58;1.23;;;1.13;;
4409;SDS011;2218;51.408;7.208;2022-11-20T06:08:25;1.33;;;1.23;;
4409;SDS011;2218;51.408;7.208;2022-11-20T06:10:52;1.20;;;1.10;;
4409;SDS011;2218;51.408;7.208;2022-11-20T06:13:18;1.30;;;1.20;;
4409;SDS011;2218;51.408;7.208;2022-11-20T06:15:47;1.50;;;1.40;;
4409;SDS011;2218;51.408;7.208;2022-11-20T06:18:15;1.30;;;1.20;;
4409;SDS011;2218;51.408;7.208;2022-11-20T06:20:44;1.47;;;1.37;;
4409;SDS011;2218;51.408;7.208;2022-11-20T06:23:12;1.47;;;1.20;;
4409;SDS011;2218;51.408;7.208;2022-11-20T06:25:39;1.40;;;1.30;;
4409;SDS011;2218;51.408;7.208;2022-11-20T06:28:08;1.23;;;1.10;;
4409;SDS011;2218;51.408;7.208;2022-11-20T06:30:35;1.10;;;1.10;;
4409;SDS011;2218;51.408;7.208;2022-11-20T06:33:02;1.00;;;1.00;;
4409;SDS011;2218;51.408;7.208;2022-11-20T06:35:29;1.20;;;1.10;;
4409;SDS011;2218;51.408;7.208;2022-11-20T06:37:57;1.30;;;1.20;;
4409;SDS011;2218;51.408;7.208;2022-11-20T06:40:24;1.20;;;1.10;;
4409;SDS011;2218;51.408;7.208;2022-11-20T06:42:53;1.40;;;1.30;;
4409;SDS011;2218;51.408;7.208;2022-11-20T06:45:20;1.07;;;1.00;;
4409;SDS011;2218;51.408;7.208;2022-11-20T06:47:47;1.20;;;1.10;;
4409;SDS011;2218;51.408;7.208;2022-11-20T06:50:14;1.13;;;1.10;;
4409;SDS011;2218;51.408;7.208;2022-11-20T06:52:41;1.03;;;1.03;;
4409;SDS011;2218;51.408;7.208;2022-11-20T06:55:10;1.07;;;1.07;;
4409;SDS011;2218;51.408;7.208;2022-11-20T06:57:37;0.90;;;0.90;;
4409;SDS011;2218;51.408;7.208;2022-11-20T07:00:04;1.40;;;1.30;;
4409;SDS011;2218;51.408;7.208;2022-11-20T07:02:32;1.30;;;1.20;;
4409;SDS011;2218;51.408;7.208;2022-11-20T07:04:59;1.10;;;1.00;;
4409;SDS011;2218;51.408;7.208;2022-11-20T07:07:26;1.20;;;1.10;;
4409;SDS011;2218;51.408;7.208;2022-11-20T07:09:53;1.13;;;1.10;;
4409;SDS011;2218;51.408;7.208;2022-11-20T07:12:21;1.37;;;1.27;;
4409;SDS011;2218;51.408;7.208;2022-11-20T07:14:48;0.90;;;0.90;;
4409;SDS011;2218;51.408;7.208;2022-11-20T07:17:15;1.10;;;1.00;;
4409;SDS011;2218;51.408;7.208;2022-11-20T07:19:41;1.30;;;1.20;;
4409;SDS011;2218;51.408;7.208;2022-11-20T07:22:08;1.10;;;1.00;;
4409;SDS011;2218;51.408;7.208;2022-11-20T07:24:35;1.30;;;1.20;;
4409;SDS011;2218;51.408;7.208;2022-11-20T07:27:02;0.90;;;0.90;;
4409;SDS011;2218;51.408;7.208;2022-11-20T07:29:31;1.13;;;1.03;;
4409;SDS011;2218;51.408;7.208;2022-11-20T07:31:58;0.97;;;0.97;;
4409;SDS011;2218;51.408;7.208;2022-11-20T07:34:25;1.20;;;1.10;;
4409;SDS011;2218;51.408;7.208;2022-11-20T07:36:52;1.13;;;1.10;;
4409;SDS011;2218;51.408;7.208;2022-11-20T07:39:19;1.20;;;1.10;;
4409;SDS011;2218;51.408;7.208;2022-11-20T07:41:46;1.20;;;1.10;;
4409;SDS011;2218;51.408;7.208;2022-11-20T07:44:12;0.93;;;0.93;;
4409;SDS011;2218;51.408;7.208;2022-11-20T07:46:41;1.00;;;1.00;;
4409;SDS011;2218;51.408;7.208;2022-11-20T07:49:07;1.20;;;1.10;;
4409;SDS011;2218;51.408;7.208;2022-11-20T07:51:34;0.90;;;0.90;;
4409;SDS011;2218;51.408;7.208;2022-11-20T07:54:01;1.30;;;1.20;;
4409;SDS011;2218;51.408;7.208;2022-11-20T07:56:28;1.17;;;1.07;;
4409;SDS011;2218;51.408;7.208;2022-11-20T07:58:55;0.90;;;0.90;;
4409;SDS011;2218;51.408;7.208;2022-11-20T08:01:22;1.30;;;1.20;;
4409;SDS011;2218;51.408;7.208;2022-11-20T08:03:50;1.10;;;1.00;;
4409;SDS011;2218;51.408;7.208;2022-11-20T08:06:17;1.10;;;1.00;;
4409;SDS011;2218;51.408;7.208;2022-11-20T08:08:45;1.13;;;1.03;;
4409;SDS011;2218;51.408;7.208;2022-11-20T08:11:12;0.90;;;0.90;;
4409;SDS011;2218;51.408;7.208;2022-11-20T08:13:56;1.27;;;1.17;;
4409;SDS011;2218;51.408;7.208;2022-11-20T08:16:38;1.40;;;1.30;;
4409;SDS011;2218;51.408;7.208;2022-11-20T08:19:07;1.20;;;1.10;;
4409;SDS011;2218;51.408;7.208;2022-11-20T08:21:34;1.00;;;1.00;;
4409;SDS011;2218;51.408;7.208;2022-11-20T08:24:01;1.00;;;0.90;;
4409;SDS011;2218;51.408;7.208;2022-11-20T08:26:28;0.93;;;0.93;;
4409;SDS011;2218;51.408;7.208;2022-11-20T08:28:55;1.07;;;1.00;;
4409;SDS011;2218;51.408;7.208;2022-11-20T08:31:24;1.13;;;1.07;;
4409;SDS011;2218;51.408;7.208;2022-11-20T08:33:53;0.87;;;0.87;;
4409;SDS011;2218;51.408;7.208;2022-11-20T08:36:21;0.90;;;0.90;;
4409;SDS011;2218;51.408;7.208;2022-11-20T08:38:50;1.10;;;1.00;;
4409;SDS011;2218;51.408;7.208;2022-11-20T08:41:18;0.90;;;0.90;;
4409;SDS011;2218;51.408;7.208;2022-11-20T08:43:49;0.90;;;0.90;;
4409;SDS011;2218;51.408;7.208;2022-11-20T08:46:18;1.00;;;1.00;;
4409;SDS011;2218;51.408;7.208;2022-11-20T08:48:46;0.90;;;0.90;;
4409;SDS011;2218;51.408;7.208;2022-11-20T08:51:13;1.10;;;1.10;;
4409;SDS011;2218;51.408;7.208;2022-11-20T08:53:42;1.03;;;1.03;;
4409;SDS011;2218;51.408;7.208;2022-11-20T08:56:09;1.63;;;1.23;;
4409;SDS011;2218;51.408;7.208;2022-11-20T08:58:36;1.20;;;1.10;;
4409;SDS011;2218;51.408;7.208;2022-11-20T09:01:03;0.90;;;0.90;;
4409;SDS011;2218;51.408;7.208;2022-11-20T09:03:31;1.00;;;1.00;;
4409;SDS011;2218;51.408;7.208;2022-11-20T09:05:58;1.53;;;1.30;;
4409;SDS011;2218;51.408;7.208;2022-11-20T09:08:26;1.10;;;1.07;;
4409;SDS011;2218;51.408;7.208;2022-11-20T09:10:56;1.10;;;1.03;;
4409;SDS011;2218;51.408;7.208;2022-11-20T09:13:24;0.80;;;0.80;;
4409;SDS011;2218;51.408;7.208;2022-11-20T09:15:54;0.90;;;0.90;;
4409;SDS011;2218;51.408;7.208;2022-11-20T09:18:22;1.10;;;1.00;;
4409;SDS011;2218;51.408;7.208;2022-11-20T09:20:50;0.93;;;0.93;;
4409;SDS011;2218;51.408;7.208;2022-11-20T09:23:17;1.40;;;1.30;;
4409;SDS011;2218;51.408;7.208;2022-11-20T09:25:44;0.93;;;0.93;;
4409;SDS011;2218;51.408;7.208;2022-11-20T09:28:12;1.13;;;1.03;;
4409;SDS011;2218;51.408;7.208;2022-11-20T09:30:39;1.40;;;1.30;;
4409;SDS011;2218;51.408;7.208;2022-11-20T09:33:06;1.20;;;1.10;;
4409;SDS011;2218;51.408;7.208;2022-11-20T09:35:33;1.00;;;1.00;;
4409;SDS011;2218;51.408;7.208;2022-11-20T09:38:04;1.20;;;1.10;;
4409;SDS011;2218;51.408;7.208;2022-11-20T09:40:32;1.20;;;1.10;;
4409;SDS011;2218;51.408;7.208;2022-11-20T09:43:02;1.07;;;0.97;;
4409;SDS011;2218;51.408;7.208;2022-11-20T09:45:44;1.17;;;1.07;;
4409;SDS011;2218;51.408;7.208;2022-11-20T09:48:36;1.13;;;1.10;;
4409;SDS011;2218;51.408;7.208;2022-11-20T09:51:42;1.40;;;1.30;;
4409;SDS011;2218;51.408;7.208;2022-11-20T09:54:25;1.30;;;1.20;;
4409;SDS011;2218;51.408;7.208;2022-11-20T09:56:58;1.10;;;1.10;;
4409;SDS011;2218;51.408;7.208;2022-11-20T09:59:31;1.30;;;1.20;;
4409;SDS011;2218;51.408;7.208;2022-11-20T10:04:59;1.20;;;1.10;;
4409;SDS011;2218;51.408;7.208;2022-11-20T10:07:36;1.30;;;1.20;;
4409;SDS011;2218;51.408;7.208;2022-11-20T10:10:13;1.00;;;1.00;;
4409;SDS011;2218;51.408;7.208;2022-11-20T10:12:48;1.23;;;1.13;;
4409;SDS011;2218;51.408;7.208;2022-11-20T10:15:38;1.20;;;1.10;;
4409;SDS011;2218;51.408;7.208;2022-11-20T10:18:27;1.30;;;1.20;;
4409;SDS011;2218;51.408;7.208;2022-11-20T10:21:12;1.10;;;1.00;;
4409;SDS011;2218;51.408;7.208;2022-11-20T10:23:58;1.50;;;1.40;;
4409;SDS011;2218;51.408;7.208;2022-11-20T10:26:56;1.40;;;1.30;;
4409;SDS011;2218;51.408;7.208;2022-11-20T10:29:41;1.20;;;1.13;;
4409;SDS011;2218;51.408;7.208;2022-11-20T10:32:14;1.23;;;1.13;;
4409;SDS011;2218;51.408;7.208;2022-11-20T10:34:48;1.40;;;1.30;;
4409;SDS011;2218;51.408;7.208;2022-11-20T10:37:24;1.47;;;1.37;;
4409;SDS011;2218;51.408;7.208;2022-11-20T10:39:54;1.20;;;1.10;;
4409;SDS011;2218;51.408;7.208;2022-11-20T10:42:33;1.20;;;1.10;;
4409;SDS011;2218;51.408;7.208;2022-11-20T10:45:09;1.30;;;1.20;;
4409;SDS011;2218;51.408;7.208;2022-11-20T10:48:07;1.30;;;1.20;;
4409;SDS011;2218;51.408;7.208;2022-11-20T10:50:47;1.30;;;1.20;;
4409;SDS011;2218;51.408;7.208;2022-11-20T10:53:51;1.40;;;1.30;;
4409;SDS011;2218;51.408;7.208;2022-11-20T10:56:31;1.17;;;1.07;;
4409;SDS011;2218;51.408;7.208;2022-11-20T10:59:12;1.40;;;1.30;;
4409;SDS011;2218;51.408;7.208;2022-11-20T11:02:14;1.20;;;1.10;;
4409;SDS011;2218;51.408;7.208;2022-11-20T11:04:45;1.50;;;1.40;;
4409;SDS011;2218;51.408;7.208;2022-11-20T11:07:16;1.40;;;1.30;;
4409;SDS011;2218;51.408;7.208;2022-11-20T11:09:50;1.30;;;1.20;;
4409;SDS011;2218;51.408;7.208;2022-11-20T11:12:19;1.30;;;1.20;;
4409;SDS011;2218;51.408;7.208;2022-11-20T11:14:50;1.40;;;1.30;;
4409;SDS011;2218;51.408;7.208;2022-11-20T11:17:24;1.20;;;1.10;;
4409;SDS011;2218;51.408;7.208;2022-11-20T11:20:04;1.30;;;1.20;;
4409;SDS011;2218;51.408;7.208;2022-11-20T11:22:44;1.23;;;1.13;;
4409;SDS011;2218;51.408;7.208;2022-11-20T11:25:24;1.57;;;1.47;;
4409;SDS011;2218;51.408;7.208;2022-11-20T11:27:56;1.47;;;1.37;;
4409;SDS011;2218;51.408;7.208;2022-11-20T11:30:26;1.10;;;1.10;;
4409;SDS011;2218;51.408;7.208;2022-11-20T11:33:03;1.50;;;1.40;;
4409;SDS011;2218;51.408;7.208;2022-11-20T11:35:33;1.00;;;1.00;;
4409;SDS011;2218;51.408;7.208;2022-11-20T11:38:06;1.23;;;1.13;;
4409;SDS011;2218;51.408;7.208;2022-11-20T11:40:40;1.47;;;1.37;;
4409;SDS011;2218;51.408;7.208;2022-11-20T11:43:16;1.13;;;1.03;;
4409;SDS011;2218;51.408;7.208;2022-11-20T11:48:59;1.30;;;1.20;;
4409;SDS011;2218;51.408;7.208;2022-11-20T11:51:39;1.20;;;1.10;;
4409;SDS011;2218;51.408;7.208;2022-11-20T11:54:26;1.20;;;1.10;;
4409;SDS011;2218;51.408;7.208;2022-11-20T11:57:03;0.90;;;0.90;;
4409;SDS011;2218;51.408;7.208;2022-11-20T11:59:43;1.23;;;1.13;;
4409;SDS011;2218;51.408;7.208;2022-11-20T12:02:25;1.30;;;1.20;;
4409;SDS011;2218;51.408;7.208;2022-11-20T12:05:08;1.20;;;1.10;;
4409;SDS011;2218;51.408;7.208;2022-11-20T12:07:45;1.00;;;1.00;;
4409;SDS011;2218;51.408;7.208;2022-11-20T12:10:18;1.30;;;1.20;;
4409;SDS011;2218;51.408;7.208;2022-11-20T12:12:50;1.10;;;1.10;;
4409;SDS011;2218;51.408;7.208;2022-11-20T12:15:28;0.93;;;0.93;;
4409;SDS011;2218;51.408;7.208;2022-11-20T12:17:57;1.20;;;1.10;;
4409;SDS011;2218;51.408;7.208;2022-11-20T12:20:26;1.57;;;1.47;;
4409;SDS011;2218;51.408;7.208;2022-11-20T12:23:04;1.10;;;1.00;;
4409;SDS011;2218;51.408;7.208;2022-11-20T12:25:45;0.93;;;0.93;;
4409;SDS011;2218;51.408;7.208;2022-11-20T12:28:24;1.03;;;0.93;;
4409;SDS011;2218;51.408;7.208;2022-11-20T12:31:21;1.30;;;1.20;;
4409;SDS011;2218;51.408;7.208;2022-11-20T12:34:17;1.13;;;1.10;;
4409;SDS011;2218;51.408;7.208;2022-11-20T12:37:05;0.97;;;0.97;;
4409;SDS011;2218;51.408;7.208;2022-11-20T12:39:46;1.13;;;1.10;;
4409;SDS011;2218;51.408;7.208;2022-11-20T12:45:46;1.20;;;1.10;;
4409;SDS011;2218;51.408;7.208;2022-11-20T12:48:47;1.20;;;1.10;;
4409;SDS011;2218;51.408;7.208;2022-11-20T12:51:39;1.20;;;1.10;;
4409;SDS011;2218;51.408;7.208;2022-11-20T12:54:44;1.37;;;1.27;;
4409;SDS011;2218;51.408;7.208;2022-11-20T12:57:27;0.87;;;0.80;;
4409;SDS011;2218;51.408;7.208;2022-11-20T13:00:12;0.90;;;0.90;;
4409;SDS011;2218;51.408;7.208;2022-11-20T13:02:55;0.80;;;0.80;;
4409;SDS011;2218;51.408;7.208;2022-11-20T13:05:47;1.03;;;1.03;;
4409;SDS011;2218;51.408;7.208;2022-11-20T13:08:24;1.10;;;1.00;;
4409;SDS011;2218;51.408;7.208;2022-11-20T13:10:56;0.80;;;0.80;;
4409;SDS011;2218;51.408;7.208;2022-11-20T13:13:35;0.80;;;0.80;;
4409;SDS011;2218;51.408;7.208;2022-11-20T13:16:16;0.70;;;0.70;;
4409;SDS011;2218;51.408;7.208;2022-11-20T13:18:51;1.20;;;1.10;;
4409;SDS011;2218;51.408;7.208;2022-11-20T13:21:20;1.10;;;1.00;;
4409;SDS011;2218;51.408;7.208;2022-11-20T13:24:03;0.90;;;0.90;;
4409;SDS011;2218;51.408;7.208;2022-11-20T13:26:31;0.90;;;0.90;;
4409;SDS011;2218;51.408;7.208;2022-11-20T13:28:59;1.00;;;1.00;;
4409;SDS011;2218;51.408;7.208;2022-11-20T13:31:43;0.97;;;0.97;;
4409;SDS011;2218;51.408;7.208;2022-11-20T13:34:14;1.47;;;1.37;;
4409;SDS011;2218;51.408;7.208;2022-11-20T13:36:51;1.00;;;1.00;;
4409;SDS011;2218;51.408;7.208;2022-11-20T13:39:23;1.30;;;1.20;;
4409;SDS011;2218;51.408;7.208;2022-11-20T13:41:53;1.00;;;0.90;;
4409;SDS011;2218;51.408;7.208;2022-11-20T13:44:24;0.90;;;0.90;;
4409;SDS011;2218;51.408;7.208;2022-11-20T13:47:00;0.80;;;0.80;;
4409;SDS011;2218;51.408;7.208;2022-11-20T13:49:29;1.37;;;1.27;;
4409;SDS011;2218;51.408;7.208;2022-11-20T13:52:06;1.00;;;1.00;;
4409;SDS011;2218;51.408;7.208;2022-11-20T13:55:04;0.80;;;0.80;;
4409;SDS011;2218;51.408;7.208;2022-11-20T14:00:48;1.17;;;1.07;;
4409;SDS011;2218;51.408;7.208;2022-11-20T14:03:24;0.93;;;0.90;;
4409;SDS011;2218;51.408;7.208;2022-11-20T14:05:56;0.90;;;0.90;;
4409;SDS011;2218;51.408;7.208;2022-11-20T14:08:31;0.80;;;0.80;;
4409;SDS011;2218;51.408;7.208;2022-11-20T14:11:05;0.87;;;0.87;;
4409;SDS011;2218;51.408;7.208;2022-11-20T14:13:50;0.90;;;0.90;;
4409;SDS011;2218;51.408;7.208;2022-11-20T14:16:24;1.00;;;0.90;;
4409;SDS011;2218;51.408;7.208;2022-11-20T14:18:57;0.87;;;0.87;;
4409;SDS011;2218;51.408;7.208;2022-11-20T14:21:51;0.83;;;0.83;;
4409;SDS011;2218;51.408;7.208;2022-11-20T14:24:20;0.90;;;0.90;;
4409;SDS011;2218;51.408;7.208;2022-11-20T14:26:49;1.07;;;0.97;;
4409;SDS011;2218;51.408;7.208;2022-11-20T14:29:18;1.20;;;1.20;;
4409;SDS011;2218;51.408;7.208;2022-11-20T14:31:51;1.10;;;1.10;;
4409;SDS011;2218;51.408;7.208;2022-11-20T14:34:23;0.97;;;0.93;;
4409;SDS011;2218;51.408;7.208;2022-11-20T14:36:56;1.30;;;1.20;;
4409;SDS011;2218;51.408;7.208;2022-11-20T14:39:27;1.03;;;1.00;;
4409;SDS011;2218;51.408;7.208;2022-11-20T14:41:59;1.30;;;1.20;;
4409;SDS011;2218;51.408;7.208;2022-11-20T14:44:27;0.90;;;0.90;;
4409;SDS011;2218;51.408;7.208;2022-11-20T14:47:00;1.13;;;0.90;;
4409;SDS011;2218;51.408;7.208;2022-11-20T14:49:31;0.87;;;0.87;;
4409;SDS011;2218;51.408;7.208;2022-11-20T14:51:59;1.07;;;1.00;;
4409;SDS011;2218;51.408;7.208;2022-11-20T14:54:27;1.17;;;1.07;;
4409;SDS011;2218;51.408;7.208;2022-11-20T14:56:55;1.20;;;1.10;;
4409;SDS011;2218;51.408;7.208;2022-11-20T14:59:25;0.90;;;0.90;;
4409;SDS011;2218;51.408;7.208;2022-11-20T15:01:54;1.03;;;1.00;;
4409;SDS011;2218;51.408;7.208;2022-11-20T15:04:22;1.07;;;1.00;;
4409;SDS011;2218;51.408;7.208;2022-11-20T15:06:52;0.97;;;0.97;;
4409;SDS011;2218;51.408;7.208;2022-11-20T15:09:22;1.33;;;1.23;;
4409;SDS011;2218;51.408;7.208;2022-11-20T15:11:53;0.83;;;0.83;;
4409;SDS011;2218;51.408;7.208;2022-11-20T15:14:23;1.10;;;1.00;;
4409;SDS011;2218;51.408;7.208;2022-11-20T15:16:52;1.27;;;1.17;;
4409;SDS011;2218;51.408;7.208;2022-11-20T15:19:20;0.90;;;0.90;;
4409;SDS011;2218;51.408;7.208;2022-11-20T15:21:51;0.97;;;0.97;;
4409;SDS011;2218;51.408;7.208;2022-11-20T15:24:19;0.90;;;0.90;;
4409;SDS011;2218;51.408;7.208;2022-11-20T15:26:46;1.00;;;1.00;;
4409;SDS011;2218;51.408;7.208;2022-11-20T15:29:15;1.10;;;1.00;;
4409;SDS011;2218;51.408;7.208;2022-11-20T15:31:43;1.10;;;1.00;;
4409;SDS011;2218;51.408;7.208;2022-11-20T15:34:11;1.20;;;1.10;;
4409;SDS011;2218;51.408;7.208;2022-11-20T15:36:41;1.00;;;0.90;;
4409;SDS011;2218;51.408;7.208;2022-11-20T15:39:10;1.03;;;1.03;;
4409;SDS011;2218;51.408;7.208;2022-11-20T15:41:37;0.90;;;0.90;;
4409;SDS011;2218;51.408;7.208;2022-11-20T15:44:05;1.10;;;1.00;;
4409;SDS011;2218;51.408;7.208;2022-11-20T15:46:32;1.30;;;1.20;;
4409;SDS011;2218;51.408;7.208;2022-11-20T15:49:05;1.17;;;1.17;;
4409;SDS011;2218;51.408;7.208;2022-11-20T15:51:36;1.30;;;1.20;;
4409;SDS011;2218;51.408;7.208;2022-11-20T15:54:08;1.30;;;1.20;;
4409;SDS011;2218;51.408;7.208;2022-11-20T15:56:40;1.23;;;1.13;;